createdAt,value
2018-02-16T00:00:13.096Z,97095.70
2018-02-16T00:02:39.108Z,97098.77
2018-02-16T00:05:05.081Z,97106.37
2018-02-16T00:07:31.156Z,97097.22
2018-02-16T00:09:57.156Z,97076.30
2018-02-16T00:12:23.212Z,97067.84
2018-02-16T00:14:49.282Z,97071.63
2018-02-16T00:17:15.332Z,97075.13
2018-02-16T00:19:41.320Z,97086.44
2018-02-16T00:22:07.396Z,97082.14
2018-02-16T00:24:33.410Z,97099.79
2018-02-16T00:26:59.472Z,97112.80
2018-02-16T00:29:25.506Z,97113.16
2018-02-16T00:31:51.560Z,97118.48
2018-02-16T00:34:17.608Z,97115.89
2018-02-16T00:36:43.670Z,97130.97
2018-02-16T00:39:09.740Z,97126.80
2018-02-16T00:41:35.777Z,97130.25
2018-02-16T00:44:01.785Z,97120.36
2018-02-16T00:46:27.804Z,97113.44
2018-02-16T00:48:53.808Z,97111.98
2018-02-16T00:51:19.857Z,97119.42
2018-02-16T00:53:45.843Z,97121.30
2018-02-16T00:56:11.897Z,97127.64
2018-02-16T00:58:37.957Z,97117.61
2018-02-16T01:01:03.949Z,97121.66
2018-02-16T01:03:30.026Z,97113.83
2018-02-16T01:05:56.033Z,97112.95
2018-02-16T01:08:22.079Z,97112.31
2018-02-16T01:10:48.105Z,97112.19
2018-02-16T01:13:14.106Z,97118.56
2018-02-16T01:15:40.137Z,97121.41
2018-02-16T01:18:06.126Z,97119.81
2018-02-16T01:20:32.195Z,97121.11
2018-02-16T01:22:58.174Z,97118.91
2018-02-16T01:25:24.113Z,97114.06
2018-02-16T01:27:50.154Z,97109.28
2018-02-16T01:30:16.102Z,97116.31
2018-02-16T01:32:42.185Z,97129.05
2018-02-16T01:35:08.252Z,97132.41
2018-02-16T01:37:34.669Z,97141.05
2018-02-16T01:40:00.688Z,97145.05
2018-02-16T01:42:26.716Z,97151.21
2018-02-16T01:44:52.892Z,97162.50
2018-02-16T01:47:18.913Z,97163.52
2018-02-16T01:49:51.756Z,97165.89
2018-02-16T01:52:17.787Z,97160.96
2018-02-16T01:54:43.830Z,97167.41
2018-02-16T01:57:09.808Z,97167.16
2018-02-16T01:59:35.793Z,97160.39
2018-02-16T02:02:01.842Z,97162.98
2018-02-16T02:04:27.854Z,97164.22
2018-02-16T02:06:53.877Z,97157.99
2018-02-16T02:09:19.871Z,97159.02
2018-02-16T02:11:45.912Z,97160.20
2018-02-16T02:14:11.896Z,97166.45
2018-02-16T02:16:37.945Z,97160.98
2018-02-16T02:19:03.949Z,97161.87
2018-02-16T02:21:29.996Z,97159.39
2018-02-16T02:23:56.093Z,97161.05
2018-02-16T02:26:22.116Z,97165.31
2018-02-16T02:28:48.280Z,97166.47
2018-02-16T02:31:14.272Z,97168.16
2018-02-16T02:33:40.297Z,97167.19
2018-02-16T02:36:06.294Z,97173.03
2018-02-16T02:38:32.278Z,97170.41
2018-02-16T02:40:58.289Z,97171.43
2018-02-16T02:43:24.269Z,97169.86
2018-02-16T02:45:50.238Z,97158.67
2018-02-16T02:48:16.261Z,97155.16
2018-02-16T02:50:42.299Z,97141.55
2018-02-16T02:53:08.267Z,97145.58
2018-02-16T02:55:34.308Z,97154.70
2018-02-16T02:58:00.297Z,97155.61
2018-02-16T03:00:26.354Z,97146.88
2018-02-16T03:02:52.362Z,97147.75
2018-02-16T03:05:18.413Z,97152.83
2018-02-16T03:07:44.437Z,97155.43
2018-02-16T03:10:10.401Z,97161.56
2018-02-16T03:12:36.409Z,97162.91
2018-02-16T03:15:02.547Z,97175.09
2018-02-16T03:17:28.489Z,97172.23
2018-02-16T03:19:54.573Z,97173.37
2018-02-16T03:22:20.588Z,97182.18
2018-02-16T03:24:46.568Z,97186.20
2018-02-16T03:27:12.571Z,97188.13
2018-02-16T03:29:38.549Z,97197.16
2018-02-16T03:32:04.565Z,97190.29
2018-02-16T03:34:30.581Z,97193.17
2018-02-16T03:36:56.616Z,97189.77
2018-02-16T03:39:22.684Z,97192.59
2018-02-16T03:41:48.688Z,97204.86
2018-02-16T03:44:14.681Z,97205.78
2018-02-16T03:46:40.645Z,97211.25
2018-02-16T03:49:06.704Z,97209.28
2018-02-16T03:51:32.681Z,97208.16
2018-02-16T03:53:58.729Z,97201.39
2018-02-16T03:56:24.824Z,97200.03
2018-02-16T03:58:50.781Z,97193.02
2018-02-16T04:01:16.796Z,97199.00
2018-02-16T04:03:42.821Z,97200.84
2018-02-16T04:06:08.845Z,97211.22
2018-02-16T04:08:34.828Z,97210.44
2018-02-16T04:11:00.880Z,97220.17
2018-02-16T04:13:26.860Z,97222.71
2018-02-16T04:15:52.896Z,97230.18
2018-02-16T04:18:18.890Z,97238.59
2018-02-16T04:20:44.918Z,97244.00
2018-02-16T04:23:10.916Z,97252.66
2018-02-16T04:25:36.870Z,97259.34
2018-02-16T04:28:02.921Z,97258.05
2018-02-16T04:30:28.917Z,97267.09
2018-02-16T04:32:54.945Z,97266.81
2018-02-16T04:35:20.943Z,97253.75
2018-02-16T04:37:46.989Z,97272.80
2018-02-16T04:40:13.016Z,97279.19
2018-02-16T04:42:38.968Z,97279.37
2018-02-16T04:45:05.061Z,97281.38
2018-02-16T04:47:31.067Z,97286.97
2018-02-16T04:49:57.085Z,97280.16
2018-02-16T04:52:23.104Z,97297.19
2018-02-16T04:54:49.117Z,97306.38
2018-02-16T04:57:15.122Z,97304.80
2018-02-16T04:59:41.152Z,97309.88
2018-02-16T05:02:07.148Z,97312.33
2018-02-16T05:04:33.212Z,97315.53
2018-02-16T05:06:59.239Z,97320.62
2018-02-16T05:09:25.197Z,97329.09
2018-02-16T05:11:51.201Z,97334.73
2018-02-16T05:14:17.220Z,97332.49
2018-02-16T05:16:43.224Z,97332.03
2018-02-16T05:19:09.192Z,97336.59
2018-02-16T05:21:35.181Z,97347.16
2018-02-16T05:24:01.200Z,97343.42
2018-02-16T05:26:27.168Z,97344.70
2018-02-16T05:28:53.136Z,97340.50
2018-02-16T05:31:19.112Z,97350.23
2018-02-16T05:33:45.164Z,97350.03
2018-02-16T05:36:11.137Z,97350.05
2018-02-16T05:38:37.155Z,97360.23
2018-02-16T05:41:03.158Z,97367.98
2018-02-16T05:43:29.184Z,97377.88
2018-02-16T05:45:55.236Z,97376.81
2018-02-16T05:48:21.222Z,97379.08
2018-02-16T05:50:47.244Z,97380.44
2018-02-16T05:53:13.236Z,97385.38
2018-02-16T05:55:39.264Z,97377.89
2018-02-16T05:58:05.297Z,97371.23
2018-02-16T06:00:31.344Z,97374.11
2018-02-16T06:02:57.352Z,97380.33
2018-02-16T06:05:23.372Z,97389.55
2018-02-16T06:07:49.369Z,97409.56
2018-02-16T06:10:15.369Z,97405.48
2018-02-16T06:12:41.363Z,97412.67
2018-02-16T06:15:07.444Z,97414.21
2018-02-16T06:17:33.464Z,97419.32
2018-02-16T06:19:59.484Z,97426.22
2018-02-16T06:22:25.498Z,97427.50
2018-02-16T06:24:51.501Z,97423.67
2018-02-16T06:27:17.482Z,97427.50
2018-02-16T06:29:43.559Z,97432.54
2018-02-16T06:32:09.576Z,97434.67
2018-02-16T06:34:35.584Z,97436.12
2018-02-16T06:37:01.598Z,97445.20
2018-02-16T06:39:27.649Z,97446.77
2018-02-16T06:41:53.653Z,97447.59
2018-02-16T06:44:19.633Z,97450.31
2018-02-16T06:46:45.669Z,97454.13
2018-02-16T06:49:11.713Z,97466.91
2018-02-16T06:51:37.725Z,97469.64
2018-02-16T06:54:03.806Z,97474.89
2018-02-16T06:56:29.824Z,97480.56
2018-02-16T06:58:55.865Z,97472.59
2018-02-16T07:01:21.900Z,97471.06
2018-02-16T07:03:47.961Z,97472.88
2018-02-16T07:06:14.052Z,97472.56
2018-02-16T07:08:40.145Z,97478.02
2018-02-16T07:11:06.164Z,97487.39
2018-02-16T07:13:32.194Z,97489.80
2018-02-16T07:15:58.202Z,97493.86
2018-02-16T07:18:24.197Z,97489.03
2018-02-16T07:20:57.221Z,97490.17
2018-02-16T07:23:23.334Z,97493.53
2018-02-16T07:25:49.340Z,97503.16
2018-02-16T07:28:15.373Z,97503.03
2018-02-16T07:30:41.380Z,97507.50
2018-02-16T07:33:07.402Z,97514.35
2018-02-16T07:35:33.381Z,97513.25
2018-02-16T07:37:59.468Z,97527.76
2018-02-16T07:40:25.467Z,97532.22
2018-02-16T07:42:51.512Z,97532.30
2018-02-16T07:45:17.500Z,97540.58
2018-02-16T07:47:43.452Z,97544.37
2018-02-16T07:50:09.441Z,97555.97
2018-02-16T07:52:35.465Z,97561.57
2018-02-16T07:55:01.537Z,97561.00
2018-02-16T07:57:27.493Z,97570.39
2018-02-16T07:59:53.464Z,97574.44
2018-02-16T08:02:19.481Z,97570.05
2018-02-16T08:04:45.497Z,97580.77
2018-02-16T08:07:11.524Z,97586.53
2018-02-16T08:09:37.542Z,97596.61
2018-02-16T08:12:03.578Z,97605.41
2018-02-16T08:14:29.595Z,97613.59
2018-02-16T08:16:55.722Z,97616.63
2018-02-16T08:19:21.695Z,97615.34
2018-02-16T08:21:47.704Z,97616.08
2018-02-16T08:24:13.732Z,97625.65
2018-02-16T08:26:39.776Z,97618.91
2018-02-16T08:29:05.769Z,97620.66
2018-02-16T08:31:31.848Z,97617.53
2018-02-16T08:33:57.864Z,97622.44
2018-02-16T08:36:23.904Z,97624.92
2018-02-16T08:38:49.961Z,97625.18
2018-02-16T08:41:15.953Z,97639.16
2018-02-16T08:43:49.021Z,97641.67
2018-02-16T08:46:15.064Z,97646.95
2018-02-16T08:48:41.016Z,97645.06
2018-02-16T08:51:07.072Z,97642.61
2018-02-16T08:53:33.097Z,97637.86
2018-02-16T08:55:59.091Z,97636.80
2018-02-16T08:58:25.110Z,97639.27
2018-02-16T09:00:51.144Z,97639.69
2018-02-16T09:03:17.205Z,97641.81
2018-02-16T09:05:43.186Z,97644.72
2018-02-16T09:08:09.214Z,97657.88
2018-02-16T09:10:35.229Z,97665.38
2018-02-16T09:13:01.309Z,97659.37
2018-02-16T09:15:27.320Z,97660.91
2018-02-16T09:17:53.361Z,97661.86
2018-02-16T09:20:19.483Z,97669.72
2018-02-16T09:22:45.508Z,97676.85
2018-02-16T09:25:11.554Z,97676.88
2018-02-16T09:27:37.517Z,97675.24
2018-02-16T09:30:03.725Z,97674.82
2018-02-16T09:32:29.693Z,97682.38
2018-02-16T09:34:55.853Z,97690.33
2018-02-16T09:37:22.768Z,97696.43
2018-02-16T09:39:49.642Z,97706.64
2018-02-16T09:42:15.702Z,97715.70
2018-02-16T09:44:41.761Z,97714.19
2018-02-16T09:47:07.783Z,97720.50
2018-02-16T09:49:33.717Z,97722.52
2018-02-16T09:51:59.681Z,97722.16
2018-02-16T09:54:25.711Z,97720.55
2018-02-16T09:56:51.723Z,97716.36
2018-02-16T09:59:17.784Z,97718.16
2018-02-16T10:01:43.798Z,97723.37
2018-02-16T10:04:09.829Z,97728.30
2018-02-16T10:06:35.864Z,97726.85
2018-02-16T10:09:01.946Z,97729.30
2018-02-16T10:11:27.941Z,97731.25
2018-02-16T10:13:53.929Z,97726.55
2018-02-16T10:16:19.988Z,97734.72
2018-02-16T10:18:45.978Z,97735.88
2018-02-16T10:21:12.008Z,97737.01
2018-02-16T10:23:37.992Z,97743.38
2018-02-16T10:26:04.041Z,97749.02
2018-02-16T10:28:30.052Z,97743.98
2018-02-16T10:30:56.088Z,97748.27
2018-02-16T10:33:22.129Z,97754.25
2018-02-16T10:35:48.164Z,97756.19
2018-02-16T10:38:14.269Z,97754.81
2018-02-16T10:40:40.320Z,97763.66
2018-02-16T10:43:06.296Z,97765.16
2018-02-16T10:45:32.272Z,97769.09
2018-02-16T10:47:58.400Z,97774.08
2018-02-16T10:50:24.421Z,97769.43
2018-02-16T10:52:50.380Z,97773.28
2018-02-16T10:55:16.406Z,97765.95
2018-02-16T10:57:42.422Z,97773.30
2018-02-16T11:00:08.561Z,97772.43
2018-02-16T11:02:40.630Z,97777.38
2018-02-16T11:05:11.596Z,97779.81
2018-02-16T11:07:43.828Z,97779.88
2018-02-16T11:10:09.904Z,97783.59
2018-02-16T11:12:35.897Z,97790.39
2018-02-16T11:15:02.134Z,97788.98
2018-02-16T11:17:28.232Z,97786.34
2018-02-16T11:19:54.292Z,97783.77
2018-02-16T11:22:20.402Z,97785.45
2018-02-16T11:24:46.352Z,97786.42
2018-02-16T11:27:12.437Z,97790.08
2018-02-16T11:29:38.381Z,97785.44
2018-02-16T11:32:04.400Z,97786.20
2018-02-16T11:34:30.453Z,97788.69
2018-02-16T11:36:56.681Z,97788.81
2018-02-16T11:39:22.698Z,97789.75
2018-02-16T11:41:48.650Z,97787.61
2018-02-16T11:44:14.643Z,97786.87
2018-02-16T11:46:40.708Z,97792.42
2018-02-16T11:49:06.760Z,97794.88
2018-02-16T11:51:32.836Z,97812.69
2018-02-16T11:53:58.912Z,97810.41
2018-02-16T11:56:24.923Z,97802.72
2018-02-16T11:58:50.925Z,97807.75
2018-02-16T12:01:17.266Z,97806.78
2018-02-16T12:03:43.285Z,97796.78
2018-02-16T12:06:09.261Z,97791.68
2018-02-16T12:08:35.285Z,97789.95
2018-02-16T12:11:01.334Z,97787.61
2018-02-16T12:13:27.389Z,97783.31
2018-02-16T12:15:53.408Z,97782.01
2018-02-16T12:18:19.421Z,97782.84
2018-02-16T12:20:45.440Z,97787.05
2018-02-16T12:23:11.429Z,97782.48
2018-02-16T12:25:37.408Z,97780.36
2018-02-16T12:28:03.431Z,97784.94
2018-02-16T12:30:29.400Z,97781.02
2018-02-16T12:32:55.439Z,97775.37
2018-02-16T12:35:21.457Z,97774.27
2018-02-16T12:37:47.470Z,97777.69
2018-02-16T12:40:13.434Z,97772.23
2018-02-16T12:42:39.482Z,97775.91
2018-02-16T12:45:05.505Z,97770.76
2018-02-16T12:47:31.550Z,97766.59
2018-02-16T12:49:57.580Z,97773.52
2018-02-16T12:52:23.553Z,97774.19
2018-02-16T12:54:49.576Z,97778.83
2018-02-16T12:57:15.577Z,97777.32
2018-02-16T12:59:41.604Z,97777.77
2018-02-16T13:02:07.619Z,97778.97
2018-02-16T13:04:33.644Z,97780.87
2018-02-16T13:06:59.739Z,97775.49
2018-02-16T13:09:25.738Z,97776.30
2018-02-16T13:11:51.711Z,97779.58
2018-02-16T13:14:17.690Z,97773.20
2018-02-16T13:16:43.697Z,97781.27
2018-02-16T13:19:09.739Z,97779.20
2018-02-16T13:21:35.784Z,97783.04
2018-02-16T13:24:01.812Z,97780.89
2018-02-16T13:26:27.852Z,97787.86
2018-02-16T13:28:53.872Z,97777.59
2018-02-16T13:31:19.909Z,97773.67
2018-02-16T13:33:45.910Z,97770.92
2018-02-16T13:36:11.993Z,97764.94
2018-02-16T13:38:38.003Z,97776.78
2018-02-16T13:41:04.020Z,97767.78
2018-02-16T13:43:30.072Z,97762.42
2018-02-16T13:45:56.066Z,97759.87
2018-02-16T13:48:22.139Z,97765.39
2018-02-16T13:50:48.180Z,97766.25
2018-02-16T13:53:14.172Z,97765.17
2018-02-16T13:55:40.194Z,97767.53
2018-02-16T13:58:06.209Z,97764.27
2018-02-16T14:00:32.241Z,97766.42
2018-02-16T14:02:58.429Z,97768.32
2018-02-16T14:05:24.524Z,97771.42
2018-02-16T14:07:50.552Z,97776.55
2018-02-16T14:10:16.570Z,97771.00
2018-02-16T14:12:42.624Z,97779.47
2018-02-16T14:15:08.619Z,97784.17
2018-02-16T14:17:34.620Z,97781.18
2018-02-16T14:20:00.689Z,97785.41
2018-02-16T14:22:26.670Z,97784.19
2018-02-16T14:24:52.703Z,97784.67
2018-02-16T14:27:18.688Z,97787.31
2018-02-16T14:29:44.700Z,97786.68
2018-02-16T14:32:10.709Z,97787.20
2018-02-16T14:34:36.756Z,97787.95
2018-02-16T14:37:02.756Z,97788.06
2018-02-16T14:39:28.799Z,97785.70
2018-02-16T14:41:54.844Z,97790.32
2018-02-16T14:46:53.684Z,97789.26
2018-02-16T14:49:19.733Z,97793.97
2018-02-16T14:51:45.783Z,97795.19
2018-02-16T14:54:11.786Z,97791.47
2018-02-16T14:56:38.253Z,97793.45
2018-02-16T14:59:04.273Z,97791.36
2018-02-16T15:01:30.315Z,97791.42
2018-02-16T15:03:56.338Z,97786.92
2018-02-16T15:06:22.315Z,97791.48
2018-02-16T15:08:48.361Z,97791.75
2018-02-16T15:11:14.348Z,97795.57
2018-02-16T15:13:40.544Z,97795.84
2018-02-16T15:16:06.428Z,97807.02
2018-02-16T15:18:32.464Z,97809.02
2018-02-16T15:20:58.482Z,97807.44
2018-02-16T15:23:24.533Z,97816.82
2018-02-16T15:25:50.539Z,97814.33
2018-02-16T15:28:16.636Z,97811.72
2018-02-16T15:30:42.602Z,97819.16
2018-02-16T15:33:08.559Z,97816.96
2018-02-16T15:35:34.597Z,97815.94
2018-02-16T15:38:00.613Z,97815.76
2018-02-16T15:40:26.605Z,97825.13
2018-02-16T15:42:52.661Z,97823.31
2018-02-16T15:45:18.745Z,97823.59
2018-02-16T15:47:44.754Z,97828.79
2018-02-16T15:50:10.809Z,97822.59
2018-02-16T15:52:36.938Z,97827.53
2018-02-16T15:55:03.062Z,97824.08
2018-02-16T15:57:29.128Z,97831.33
2018-02-16T15:59:55.156Z,97828.55
2018-02-16T16:02:21.204Z,97826.38
2018-02-16T16:04:47.253Z,97828.32
2018-02-16T16:07:13.236Z,97831.09
2018-02-16T16:09:39.317Z,97827.14
2018-02-16T16:12:05.322Z,97828.95
2018-02-16T16:14:31.376Z,97831.89
2018-02-16T16:16:57.415Z,97837.80
2018-02-16T16:19:23.419Z,97830.61
2018-02-16T16:21:49.456Z,97829.39
2018-02-16T16:24:15.484Z,97834.33
2018-02-16T16:26:41.673Z,97826.83
2018-02-16T16:29:07.703Z,97830.06
2018-02-16T16:31:33.716Z,97829.95
2018-02-16T16:33:59.786Z,97824.06
2018-02-16T16:36:25.808Z,97839.85
2018-02-16T16:38:51.857Z,97837.28
2018-02-16T16:41:17.860Z,97840.77
2018-02-16T16:43:43.840Z,97837.69
2018-02-16T16:46:09.846Z,97845.90
2018-02-16T16:48:35.847Z,97842.15
2018-02-16T16:51:01.987Z,97842.19
2018-02-16T16:53:28.009Z,97844.80
2018-02-16T16:55:54.025Z,97846.10
2018-02-16T16:58:20.080Z,97845.91
2018-02-16T17:00:46.144Z,97851.23
2018-02-16T17:03:19.256Z,97857.68
2018-02-16T17:05:45.283Z,97859.58
2018-02-16T17:08:11.313Z,97857.63
2018-02-16T17:10:37.316Z,97869.61
2018-02-16T17:13:03.510Z,97877.48
2018-02-16T17:15:29.491Z,97872.87
2018-02-16T17:17:55.525Z,97877.53
2018-02-16T17:20:21.566Z,97882.63
2018-02-16T17:22:47.493Z,97880.88
2018-02-16T17:25:13.502Z,97884.98
2018-02-16T17:27:39.514Z,97890.35
2018-02-16T17:30:05.525Z,97895.64
2018-02-16T17:32:31.561Z,97893.52
2018-02-16T17:34:57.553Z,97896.81
2018-02-16T17:37:23.584Z,97900.23
2018-02-16T17:39:49.606Z,97903.88
2018-02-16T17:42:15.660Z,97895.53
2018-02-16T17:44:41.705Z,97895.38
2018-02-16T17:47:07.714Z,97897.76
2018-02-16T17:49:33.762Z,97901.31
2018-02-16T17:51:59.713Z,97902.22
2018-02-16T17:54:25.756Z,97900.19
2018-02-16T17:56:51.770Z,97901.77
2018-02-16T17:59:17.808Z,97894.63
2018-02-16T18:01:43.848Z,97901.20
2018-02-16T18:04:09.861Z,97895.81
2018-02-16T18:06:35.884Z,97899.52
2018-02-16T18:09:01.987Z,97891.29
2018-02-16T18:11:28.060Z,97893.22
2018-02-16T18:13:54.071Z,97899.97
2018-02-16T18:16:20.389Z,97897.42
2018-02-16T18:18:46.385Z,97894.58
2018-02-16T18:21:12.400Z,97892.59
2018-02-16T18:23:38.448Z,97894.63
2018-02-16T18:26:04.534Z,97891.53
2018-02-16T18:28:30.597Z,97891.39
2018-02-16T18:30:56.649Z,97892.88
2018-02-16T18:33:22.788Z,97898.08
2018-02-16T18:35:48.841Z,97891.29
2018-02-16T18:38:14.858Z,97891.84
2018-02-16T18:40:40.857Z,97886.48
2018-02-16T18:43:06.881Z,97893.80
2018-02-16T18:45:32.937Z,97894.86
2018-02-16T18:47:58.926Z,97902.00
2018-02-16T18:50:24.956Z,97895.31
2018-02-16T18:52:51.001Z,97891.76
2018-02-16T18:55:17.049Z,97901.27
2018-02-16T18:57:43.099Z,97896.17
2018-02-16T19:00:09.117Z,97890.72
2018-02-16T19:02:35.154Z,97895.73
2018-02-16T19:05:01.210Z,97891.55
2018-02-16T19:07:27.223Z,97893.33
2018-02-16T19:09:53.231Z,97900.34
2018-02-16T19:12:19.225Z,97898.37
2018-02-16T19:14:45.208Z,97900.60
2018-02-16T19:17:11.200Z,97899.47
2018-02-16T19:19:37.436Z,97896.60
2018-02-16T19:22:03.417Z,97900.90
2018-02-16T19:24:29.488Z,97904.91
2018-02-16T19:26:55.514Z,97894.79
2018-02-16T19:29:21.532Z,97893.62
2018-02-16T19:31:47.641Z,97891.81
2018-02-16T19:34:13.669Z,97895.70
2018-02-16T19:36:39.638Z,97898.13
2018-02-16T19:39:05.637Z,97896.45
2018-02-16T19:41:31.664Z,97891.52
2018-02-16T19:43:57.701Z,97891.23
2018-02-16T19:46:23.718Z,97894.01
2018-02-16T19:48:50.127Z,97896.17
2018-02-16T19:51:16.270Z,97895.13
2018-02-16T19:53:42.398Z,97893.05
2018-02-16T19:56:08.596Z,97897.69
2018-02-16T19:58:34.663Z,97887.97
2018-02-16T20:01:00.741Z,97886.56
2018-02-16T20:03:26.739Z,97884.51
2018-02-16T20:05:52.746Z,97882.24
2018-02-16T20:08:18.876Z,97880.33
2018-02-16T20:10:44.881Z,97876.44
2018-02-16T20:13:11.090Z,97871.67
2018-02-16T20:15:37.124Z,97868.86
2018-02-16T20:18:03.223Z,97863.27
2018-02-16T20:20:29.272Z,97865.29
2018-02-16T20:22:55.348Z,97861.73
2018-02-16T20:25:21.419Z,97861.90
2018-02-16T20:27:47.458Z,97867.23
2018-02-16T20:30:13.582Z,97861.13
2018-02-16T20:32:39.587Z,97864.11
2018-02-16T20:35:05.641Z,97858.12
2018-02-16T20:37:31.968Z,97847.83
2018-02-16T20:40:00.278Z,97841.18
2018-02-16T20:42:26.408Z,97843.81
2018-02-16T20:44:53.319Z,97843.66
2018-02-16T20:47:19.392Z,97844.09
2018-02-16T20:49:45.492Z,97849.18
2018-02-16T20:52:11.555Z,97843.17
2018-02-16T20:54:37.660Z,97842.22
2018-02-16T20:57:03.828Z,97839.23
2018-02-16T20:59:29.824Z,97838.70
2018-02-16T21:01:55.892Z,97839.22
2018-02-16T21:04:21.918Z,97844.59
2018-02-16T21:06:48.003Z,97847.27
2018-02-16T21:09:14.114Z,97852.53
2018-02-16T21:11:40.204Z,97844.97
2018-02-16T21:14:06.291Z,97847.38
2018-02-16T21:16:32.347Z,97848.17
2018-02-16T21:18:58.425Z,97848.98
2018-02-16T21:21:24.432Z,97845.94
2018-02-16T21:23:50.511Z,97845.83
2018-02-16T21:26:16.772Z,97849.45
2018-02-16T21:28:43.189Z,97843.18
2018-02-16T21:31:09.310Z,97847.76
2018-02-16T21:33:35.347Z,97843.99
2018-02-16T21:36:01.657Z,97849.63
2018-02-16T21:38:27.751Z,97845.40
2018-02-16T21:40:53.803Z,97845.63
2018-02-16T21:43:19.830Z,97842.44
2018-02-16T21:45:45.910Z,97843.66
2018-02-16T21:48:12.175Z,97853.41
2018-02-16T21:50:38.202Z,97844.57
2018-02-16T21:53:04.266Z,97832.61
2018-02-16T21:55:30.312Z,97835.20
2018-02-16T21:57:56.353Z,97840.89
2018-02-16T22:00:22.475Z,97833.95
2018-02-16T22:02:48.613Z,97847.53
2018-02-16T22:05:14.637Z,97851.99
2018-02-16T22:07:40.753Z,97852.78
2018-02-16T22:10:07.088Z,97866.50
2018-02-16T22:12:33.181Z,97872.38
2018-02-16T22:14:59.313Z,97875.16
2018-02-16T22:17:25.342Z,97873.25
2018-02-16T22:19:51.377Z,97880.49
2018-02-16T22:22:17.500Z,97886.61
2018-02-16T22:24:43.557Z,97884.49
2018-02-16T22:27:09.917Z,97885.75
2018-02-16T22:29:35.937Z,97888.45
2018-02-16T22:32:01.997Z,97887.18
2018-02-16T22:34:28.122Z,97894.94
2018-02-16T22:36:54.198Z,97889.63
2018-02-16T22:42:12.986Z,97879.50
2018-02-16T22:44:38.968Z,97880.66
2018-02-16T22:47:05.026Z,97874.34
2018-02-16T22:49:31.065Z,97864.78
2018-02-16T22:51:57.142Z,97858.65
2018-02-16T22:54:23.311Z,97862.25
2018-02-16T22:56:49.458Z,97859.78
2018-02-16T22:59:15.510Z,97864.71
2018-02-16T23:01:41.529Z,97866.95
2018-02-16T23:04:07.562Z,97864.92
2018-02-16T23:06:33.584Z,97870.92
2018-02-16T23:08:59.608Z,97876.23
2018-02-16T23:11:25.625Z,97863.73
2018-02-16T23:13:51.616Z,97858.72
2018-02-16T23:16:17.904Z,97853.33
2018-02-16T23:18:43.934Z,97860.92
2018-02-16T23:21:10.124Z,97863.88
2018-02-16T23:23:36.181Z,97861.48
2018-02-16T23:26:02.226Z,97862.09
2018-02-16T23:28:28.249Z,97870.86
2018-02-16T23:30:54.483Z,97856.63
2018-02-16T23:33:20.498Z,97855.77
2018-02-16T23:35:46.855Z,97853.11
2018-02-16T23:38:12.890Z,97853.92
2018-02-16T23:40:38.917Z,97851.48
2018-02-16T23:43:05.102Z,97843.63
2018-02-16T23:45:31.601Z,97840.19
2018-02-16T23:47:57.717Z,97836.11
2018-02-16T23:50:23.824Z,97835.70
2018-02-16T23:52:49.874Z,97838.89
2018-02-16T23:55:15.905Z,97836.19
2018-02-16T23:57:41.980Z,97829.53
